Time,TemperatureF,DewpointF,PressureIn,WindDirection,WindDirectionDegrees,WindSpeedMPH,WindSpeedGustMPH,Humidity,HourlyPrecipIn,Conditions,Clouds,dailyrainin,SoftwareType,DateUTC
2013-04-04 00:02:00,36.0,29.0,-100.00,East,97,10.0,14.0,74,0.00,,,-99.99,,2013-04-04 06:02:00,
2013-04-04 00:12:00,37.0,29.0,-100.00,ESE,102,9.0,14.0,73,0.00,,,-99.99,,2013-04-04 06:12:00,
2013-04-04 00:22:00,36.0,28.0,-100.00,East,100,6.0,11.0,74,0.00,,,-99.99,,2013-04-04 06:22:00,
2013-04-04 00:32:00,36.0,28.0,-100.00,SE,124,6.0,12.0,73,0.00,,,-99.99,,2013-04-04 06:32:00,
2013-04-04 00:42:00,37.0,28.0,-100.00,ESE,109,9.0,12.0,69,0.00,,,-99.99,,2013-04-04 06:42:00,
2013-04-04 00:52:00,36.0,28.0,-100.00,East,95,8.0,11.0,72,0.00,,,-99.99,,2013-04-04 06:52:00,
2013-04-04 01:02:00,36.0,28.0,-100.00,East,90,8.0,12.0,73,0.00,,,-99.99,,2013-04-04 07:02:00,
2013-04-04 01:12:00,35.0,28.0,-100.00,East,92,7.0,11.0,74,0.00,,,-99.99,,2013-04-04 07:12:00,
2013-04-04 01:22:00,35.0,28.0,-100.00,East,97,7.0,10.0,73,0.00,,,-99.99,,2013-04-04 07:22:00,
2013-04-04 01:32:00,36.0,28.0,-100.00,East,97,7.0,11.0,71,0.00,,,-99.99,,2013-04-04 07:32:00,
2013-04-04 01:42:00,37.0,27.0,-100.00,East,96,7.0,11.0,68,0.00,,,-99.99,,2013-04-04 07:42:00,
2013-04-04 01:52:00,36.0,27.0,-100.00,East,95,9.0,12.0,72,0.00,,,-99.99,,2013-04-04 07:52:00,
2013-04-04 02:02:00,36.0,27.0,-100.00,East,96,7.0,11.0,71,0.00,,,-99.99,,2013-04-04 08:02:00,
2013-04-04 02:12:00,35.0,27.0,-100.00,East,99,7.0,11.0,73,0.00,,,-99.99,,2013-04-04 08:12:00,
2013-04-04 02:22:00,35.0,27.0,-100.00,East,95,7.0,9.0,73,0.00,,,-99.99,,2013-04-04 08:22:00,
2013-04-04 02:32:00,35.0,27.0,-100.00,East,93,9.0,12.0,73,0.00,,,-99.99,,2013-04-04 08:32:00,
2013-04-04 02:42:00,35.0,27.0,-100.00,East,92,9.0,11.0,73,0.00,,,-99.99,,2013-04-04 08:42:00,
2013-04-04 02:52:00,34.0,27.0,-100.00,East,97,7.0,10.0,74,0.00,,,-99.99,,2013-04-04 08:52:00,
2013-04-04 03:02:00,33.0,27.0,-100.00,ESE,119,4.0,7.0,75,0.00,,,-99.99,,2013-04-04 09:02:00,
2013-04-04 03:12:00,34.0,27.0,-100.00,ESE,114,4.0,9.0,75,0.00,,,-99.99,,2013-04-04 09:12:00,
2013-04-04 03:22:00,34.0,27.0,-100.00,ESE,117,4.0,7.0,74,0.00,,,-99.99,,2013-04-04 09:22:00,
2013-04-04 03:33:00,34.0,27.0,-100.00,ESE,107,5.0,8.0,75,0.00,,,-99.99,,2013-04-04 09:33:00,
2013-04-04 03:43:00,34.0,27.0,-100.00,SE,128,6.0,8.0,74,0.00,,,-99.99,,2013-04-04 09:43:00,
2013-04-04 03:53:00,34.0,27.0,-100.00,ESE,120,7.0,11.0,74,0.00,,,-99.99,,2013-04-04 09:53:00,
2013-04-04 04:03:00,34.0,26.0,-100.00,ESE,116,7.0,12.0,74,0.00,,,-99.99,,2013-04-04 10:03:00,
2013-04-04 04:12:00,34.0,27.0,-100.00,ESE,120,7.0,12.0,75,0.00,,,-99.99,,2013-04-04 10:12:00,
2013-04-04 04:23:00,33.0,26.0,-100.00,ESE,116,7.0,11.0,75,0.00,,,-99.99,,2013-04-04 10:23:00,
2013-04-04 04:33:00,34.0,26.0,-100.00,SE,124,6.0,8.0,74,0.00,,,-99.99,,2013-04-04 10:33:00,
2013-04-04 04:42:00,33.0,26.0,-100.00,SE,145,5.0,9.0,76,0.00,,,-99.99,,2013-04-04 10:42:00,
2013-04-04 04:53:00,34.0,27.0,-100.00,SSE,154,1.0,6.0,75,0.00,,,-99.99,,2013-04-04 10:53:00,
2013-04-04 05:02:00,36.0,27.0,-100.00,SSE,161,8.0,20.0,68,0.00,,,-99.99,,2013-04-04 11:02:00,
2013-04-04 05:12:00,37.0,27.0,-100.00,SSE,155,15.0,21.0,66,0.00,,,-99.99,,2013-04-04 11:12:00,
2013-04-04 05:22:00,37.0,27.0,-100.00,SSE,152,17.0,24.0,65,0.00,,,-99.99,,2013-04-04 11:22:00,
2013-04-04 05:32:00,36.0,27.0,-100.00,SSE,155,15.0,21.0,67,0.00,,,-99.99,,2013-04-04 11:32:00,
2013-04-04 05:42:00,37.0,26.0,-100.00,SSE,151,16.0,19.0,64,0.00,,,-99.99,,2013-04-04 11:42:00,
2013-04-04 05:53:00,37.0,26.0,-100.00,SSE,150,16.0,21.0,64,0.00,,,-99.99,,2013-04-04 11:53:00,
2013-04-04 06:02:00,37.0,26.0,-100.00,SE,138,15.0,19.0,65,0.00,,,-99.99,,2013-04-04 12:02:00,
2013-04-04 06:12:00,37.0,26.0,-100.00,SE,138,16.0,19.0,64,0.00,,,-99.99,,2013-04-04 12:12:00,
2013-04-04 06:22:00,37.0,26.0,-100.00,SSE,148,17.0,24.0,64,0.00,,,-99.99,,2013-04-04 12:22:00,
2013-04-04 06:32:00,37.0,26.0,-100.00,SSE,150,16.0,22.0,64,0.00,,,-99.99,,2013-04-04 12:32:00,
2013-04-04 06:42:00,36.0,26.0,-100.00,SSE,152,14.0,20.0,65,0.00,,,-99.99,,2013-04-04 12:42:00,
2013-04-04 06:52:00,36.0,26.0,-100.00,SSE,152,15.0,20.0,66,0.00,,,-99.99,,2013-04-04 12:52:00,
2013-04-04 07:02:00,36.0,26.0,-100.00,SSE,157,16.0,21.0,65,0.00,,,-99.99,,2013-04-04 13:02:00,
2013-04-04 07:12:00,36.0,26.0,-100.00,SSE,157,16.0,21.0,67,0.00,,,-99.99,,2013-04-04 13:12:00,
2013-04-04 07:22:00,35.0,26.0,-100.00,SSE,158,15.0,19.0,69,0.00,,,-99.99,,2013-04-04 13:22:00,
2013-04-04 07:32:00,35.0,26.0,-100.00,SSE,165,14.0,18.0,69,0.00,,,-99.99,,2013-04-04 13:32:00,
2013-04-04 07:52:00,37.0,26.0,-100.00,SSE,161,17.0,21.0,64,0.00,,,-99.99,,2013-04-04 13:52:00,
2013-04-04 08:03:00,38.0,27.0,-100.00,SSE,158,16.0,21.0,62,0.00,,,-99.99,,2013-04-04 14:03:00,
2013-04-04 08:12:00,39.0,27.0,-100.00,SSE,157,16.0,21.0,62,0.00,,,-99.99,,2013-04-04 14:12:00,
2013-04-04 08:22:00,40.0,26.0,-100.00,SSE,151,17.0,24.0,58,0.00,,,-99.99,,2013-04-04 14:22:00,
2013-04-04 08:32:00,40.0,26.0,-100.00,SSE,150,17.0,22.0,57,0.00,,,-99.99,,2013-04-04 14:32:00,
2013-04-04 08:42:00,40.0,26.0,-100.00,SSE,150,18.0,23.0,56,0.00,,,-99.99,,2013-04-04 14:42:00,
2013-04-04 09:02:00,42.0,26.0,-100.00,SSE,154,20.0,27.0,53,0.00,,,-99.99,,2013-04-04 15:02:00,
2013-04-04 09:12:00,42.0,27.0,-100.00,SSE,155,21.0,27.0,56,-99.99,,,-99.99,,2013-04-04 15:12:00,
2013-04-04 09:22:00,43.0,27.0,-100.00,SSE,154,20.0,25.0,53,0.00,,,-99.99,,2013-04-04 15:22:00,
2013-04-04 09:33:00,43.0,27.0,-100.00,SSE,161,20.0,24.0,54,0.00,,,-99.99,,2013-04-04 15:33:00,
2013-04-04 09:43:00,43.0,27.0,-100.00,SSE,162,20.0,24.0,54,0.00,,,-99.99,,2013-04-04 15:43:00,
2013-04-04 09:53:00,44.0,27.0,-100.00,SSE,165,21.0,26.0,53,0.00,,,-99.99,,2013-04-04 15:53:00,
2013-04-04 10:12:00,44.0,28.0,-100.00,SSE,161,18.0,23.0,53,0.00,,,-99.99,,2013-04-04 16:12:00,
2013-04-04 10:23:00,45.0,28.0,-100.00,SSE,161,21.0,26.0,51,0.00,,,-99.99,,2013-04-04 16:23:00,
2013-04-04 10:32:00,46.0,28.0,-100.00,SSE,164,22.0,27.0,49,0.00,,,-99.99,,2013-04-04 16:32:00,
2013-04-04 10:42:00,45.0,28.0,-100.00,SSE,167,23.0,29.0,50,0.00,,,-99.99,,2013-04-04 16:42:00,
2013-04-04 10:53:00,46.0,29.0,-100.00,South,172,23.0,30.0,51,0.00,,,-99.99,,2013-04-04 16:53:00,
2013-04-04 11:02:00,45.0,27.0,-100.00,South,174,22.0,28.0,49,0.00,,,-99.99,,2013-04-04 17:02:00,
2013-04-04 11:13:00,47.0,28.0,-100.00,South,179,21.0,28.0,48,0.00,,,-99.99,,2013-04-04 17:13:00,
2013-04-04 11:22:00,47.0,28.0,-100.00,South,174,21.0,27.0,47,0.00,,,-99.99,,2013-04-04 17:22:00,
2013-04-04 11:33:00,48.0,28.0,-100.00,SSE,165,22.0,29.0,45,0.00,,,-99.99,,2013-04-04 17:33:00,
2013-04-04 11:42:00,48.0,27.0,-100.00,South,171,23.0,32.0,44,0.00,,,-99.99,,2013-04-04 17:42:00,
2013-04-04 11:52:00,47.0,28.0,-100.00,South,176,23.0,32.0,47,0.00,,,-99.99,,2013-04-04 17:52:00,
2013-04-04 12:02:00,48.0,27.0,-100.00,SSE,165,21.0,27.0,44,0.00,,,-99.99,,2013-04-04 18:02:00,
2013-04-04 12:12:00,49.0,27.0,-100.00,SSE,165,22.0,29.0,41,0.00,,,-99.99,,2013-04-04 18:12:00,
2013-04-04 12:22:00,49.0,25.0,-100.00,SSE,167,25.0,32.0,38,0.00,,,-99.99,,2013-04-04 18:22:00,
2013-04-04 12:32:00,50.0,24.0,-100.00,South,174,24.0,32.0,36,0.00,,,-99.99,,2013-04-04 18:32:00,
2013-04-04 12:42:00,50.0,25.0,-100.00,South,172,26.0,33.0,37,0.00,,,-99.99,,2013-04-04 18:42:00,
2013-04-04 13:02:00,50.0,23.0,-100.00,South,169,24.0,31.0,34,0.00,,,-99.99,,2013-04-04 19:02:00,
2013-04-04 13:12:00,51.0,24.0,-100.00,South,174,24.0,32.0,34,0.00,,,-99.99,,2013-04-04 19:12:00,
2013-04-04 13:22:00,52.0,23.0,-100.00,South,171,26.0,32.0,33,0.00,,,-99.99,,2013-04-04 19:22:00,
2013-04-04 13:32:00,52.0,24.0,-100.00,SSE,168,24.0,32.0,33,0.00,,,-99.99,,2013-04-04 19:32:00,
2013-04-04 13:42:00,52.0,24.0,-100.00,South,178,25.0,34.0,33,0.00,,,-99.99,,2013-04-04 19:42:00,
2013-04-04 13:52:00,51.0,23.0,-100.00,South,176,25.0,32.0,33,0.00,,,-99.99,,2013-04-04 19:52:00,
2013-04-04 14:03:00,52.0,24.0,-100.00,South,178,24.0,31.0,32,0.00,,,-99.99,,2013-04-04 20:03:00,
2013-04-04 14:12:00,52.0,23.0,-100.00,South,179,23.0,31.0,31,0.00,,,-99.99,,2013-04-04 20:12:00,
2013-04-04 14:22:00,52.0,23.0,-100.00,South,176,22.0,31.0,32,0.00,,,-99.99,,2013-04-04 20:22:00,
2013-04-04 14:32:00,52.0,24.0,-100.00,South,181,27.0,34.0,33,0.00,,,-99.99,,2013-04-04 20:32:00,
2013-04-04 14:42:00,53.0,23.0,-100.00,South,181,23.0,34.0,30,0.00,,,-99.99,,2013-04-04 20:42:00,
2013-04-04 14:52:00,54.0,22.0,-100.00,South,184,24.0,34.0,29,0.00,,,-99.99,,2013-04-04 20:52:00,
2013-04-04 15:02:00,53.0,24.0,-100.00,South,176,22.0,31.0,31,0.00,,,-99.99,,2013-04-04 21:02:00,
2013-04-04 15:12:00,53.0,23.0,-100.00,South,172,24.0,31.0,30,0.00,,,-99.99,,2013-04-04 21:12:00,
2013-04-04 15:22:00,54.0,22.0,-100.00,South,171,22.0,30.0,28,0.00,,,-99.99,,2013-04-04 21:22:00,
2013-04-04 15:32:00,54.0,22.0,-100.00,South,186,25.0,32.0,28,0.00,,,-99.99,,2013-04-04 21:32:00,
2013-04-04 15:43:00,55.0,22.0,-100.00,South,182,24.0,34.0,27,0.00,,,-99.99,,2013-04-04 21:43:00,
2013-04-04 15:52:00,54.0,23.0,-100.00,South,179,24.0,35.0,29,0.00,,,-99.99,,2013-04-04 21:52:00,
2013-04-04 16:03:00,53.0,22.0,-100.00,South,176,22.0,30.0,29,0.00,,,-99.99,,2013-04-04 22:03:00,
2013-04-04 16:12:00,55.0,24.0,-100.00,South,176,22.0,29.0,29,0.00,,,-99.99,,2013-04-04 22:12:00,
2013-04-04 16:23:00,54.0,22.0,-100.00,South,172,24.0,31.0,28,0.00,,,-99.99,,2013-04-04 22:23:00,
2013-04-04 16:33:00,55.0,22.0,-100.00,South,186,22.0,32.0,27,0.00,,,-99.99,,2013-04-04 22:33:00,
2013-04-04 16:42:00,53.0,22.0,-100.00,South,182,23.0,29.0,29,0.00,,,-99.99,,2013-04-04 22:42:00,
2013-04-04 16:52:00,54.0,22.0,-100.00,South,179,23.0,29.0,28,0.00,,,-99.99,,2013-04-04 22:52:00,
2013-04-04 17:02:00,55.0,21.0,-100.00,South,174,20.0,29.0,27,0.00,,,-99.99,,2013-04-04 23:02:00,
2013-04-04 17:12:00,54.0,22.0,-100.00,South,178,22.0,30.0,28,0.00,,,-99.99,,2013-04-04 23:12:00,
2013-04-04 17:22:00,55.0,22.0,-100.00,South,179,22.0,30.0,27,0.00,,,-99.99,,2013-04-04 23:22:00,
2013-04-04 17:32:00,-999.0,-99.9,-100.00,South,182,23.0,30.0,-999,-99.99,,,-99.99,,2013-04-04 23:32:00,
2013-04-04 17:42:00,54.0,20.0,-100.00,South,179,25.0,32.0,25,0.00,,,-99.99,,2013-04-04 23:42:00,
2013-04-04 17:52:00,54.0,21.0,-100.00,South,178,23.0,29.0,27,0.00,,,-99.99,,2013-04-04 23:52:00,
2013-04-04 18:02:00,54.0,21.0,-100.00,South,176,22.0,27.0,28,0.00,,,-99.99,,2013-04-05 00:02:00,
2013-04-04 18:12:00,54.0,21.0,-100.00,South,176,21.0,27.0,27,0.00,,,-99.99,,2013-04-05 00:12:00,
2013-04-04 18:22:00,53.0,22.0,-100.00,SSE,168,19.0,26.0,29,0.00,,,-99.99,,2013-04-05 00:22:00,
2013-04-04 18:32:00,52.0,21.0,-100.00,South,174,20.0,25.0,29,0.00,,,-99.99,,2013-04-05 00:32:00,
2013-04-04 18:42:00,52.0,21.0,-100.00,South,174,20.0,25.0,30,0.00,,,-99.99,,2013-04-05 00:42:00,
2013-04-04 18:52:00,51.0,22.0,-100.00,South,174,16.0,21.0,31,0.00,,,-99.99,,2013-04-05 00:52:00,
2013-04-04 19:02:00,51.0,22.0,-100.00,South,174,14.0,18.0,32,0.00,,,-99.99,,2013-04-05 01:02:00,
2013-04-04 19:12:00,50.0,22.0,-100.00,South,172,14.0,16.0,32,0.00,,,-99.99,,2013-04-05 01:12:00,
2013-04-04 19:22:00,50.0,22.0,-100.00,SSE,168,16.0,21.0,33,0.00,,,-99.99,,2013-04-05 01:22:00,
2013-04-04 19:32:00,49.0,22.0,-100.00,SSE,162,14.0,18.0,35,0.00,,,-99.99,,2013-04-05 01:32:00,
2013-04-04 19:42:00,49.0,21.0,-100.00,SSE,154,14.0,17.0,33,0.00,,,-99.99,,2013-04-05 01:42:00,
2013-04-04 19:52:00,48.0,20.0,-100.00,SSE,150,14.0,18.0,33,0.00,,,-99.99,,2013-04-05 01:52:00,
2013-04-04 20:03:00,48.0,20.0,-100.00,SSE,147,12.0,16.0,33,0.00,,,-99.99,,2013-04-05 02:03:00,
2013-04-04 20:12:00,48.0,20.0,-100.00,SE,143,12.0,15.0,32,0.00,,,-99.99,,2013-04-05 02:12:00,
2013-04-04 20:22:00,49.0,20.0,-100.00,SE,137,11.0,14.0,31,0.00,,,-99.99,,2013-04-05 02:22:00,
2013-04-04 20:32:00,48.0,19.0,-100.00,SE,140,10.0,14.0,32,0.00,,,-99.99,,2013-04-05 02:32:00,
2013-04-04 20:42:00,47.0,20.0,-100.00,SE,137,10.0,14.0,34,0.00,,,-99.99,,2013-04-05 02:42:00,
2013-04-04 20:52:00,46.0,19.0,-100.00,SE,128,10.0,12.0,34,0.00,,,-99.99,,2013-04-05 02:52:00,
2013-04-04 21:02:00,46.0,19.0,-100.00,SE,130,10.0,14.0,34,0.00,,,-99.99,,2013-04-05 03:02:00,
2013-04-04 21:12:00,47.0,19.0,-100.00,SE,131,11.0,16.0,32,0.00,,,-99.99,,2013-04-05 03:12:00,
2013-04-04 21:22:00,48.0,19.0,-100.00,SE,141,12.0,16.0,31,0.00,,,-99.99,,2013-04-05 03:22:00,
2013-04-04 21:32:00,48.0,19.0,-100.00,SSE,147,12.0,14.0,31,0.00,,,-99.99,,2013-04-05 03:32:00,
2013-04-04 21:43:00,48.0,19.0,-100.00,SSE,150,11.0,16.0,31,0.00,,,-99.99,,2013-04-05 03:43:00,
2013-04-04 21:53:00,47.0,19.0,-100.00,SSE,152,9.0,12.0,32,0.00,,,-99.99,,2013-04-05 03:53:00,
2013-04-04 22:02:00,48.0,19.0,-100.00,SE,145,12.0,17.0,31,0.00,,,-99.99,,2013-04-05 04:02:00,
2013-04-04 22:12:00,48.0,19.0,-100.00,SE,140,14.0,21.0,31,0.00,,,-99.99,,2013-04-05 04:12:00,
2013-04-04 22:22:00,48.0,19.0,-100.00,SE,140,16.0,21.0,31,0.00,,,-99.99,,2013-04-05 04:22:00,
2013-04-04 22:32:00,49.0,19.0,-100.00,SE,143,16.0,20.0,31,0.00,,,-99.99,,2013-04-05 04:32:00,
2013-04-04 22:42:00,49.0,19.0,-100.00,SE,138,16.0,21.0,31,0.00,,,-99.99,,2013-04-05 04:42:00,
2013-04-04 22:52:00,49.0,20.0,-100.00,SE,137,15.0,21.0,32,0.00,,,-99.99,,2013-04-05 04:52:00,
2013-04-04 23:02:00,48.0,20.0,-100.00,SE,137,14.0,19.0,32,0.00,,,-99.99,,2013-04-05 05:02:00,
2013-04-04 23:12:00,48.0,20.0,-100.00,SE,136,12.0,18.0,33,0.00,,,-99.99,,2013-04-05 05:12:00,
2013-04-04 23:22:00,48.0,21.0,-100.00,SE,136,12.0,17.0,34,0.00,,,-99.99,,2013-04-05 05:22:00,
2013-04-04 23:32:00,48.0,21.0,-100.00,SE,133,14.0,19.0,34,0.00,,,-99.99,,2013-04-05 05:32:00,
2013-04-04 23:42:00,48.0,21.0,-100.00,SE,131,14.0,19.0,34,0.00,,,-99.99,,2013-04-05 05:42:00,
2013-04-04 23:52:00,48.0,22.0,-100.00,SE,133,12.0,19.0,35,0.00,,,-99.99,,2013-04-05 05:52:00,